sensor_id;sensor_type;location;lat;lon;timestamp;P1;durP1;ratioP1;P2;durP2;ratioP2
76626;SDS011;65519;53.230;10.390;2023-02-03T00:00:53;5.90;;;2.55;;
76626;SDS011;65519;53.230;10.390;2023-02-03T00:03:18;6.93;;;2.90;;
76626;SDS011;65519;53.230;10.390;2023-02-03T00:05:43;8.48;;;2.90;;
76626;SDS011;65519;53.230;10.390;2023-02-03T00:08:11;7.88;;;2.63;;
76626;SDS011;65519;53.230;10.390;2023-02-03T00:10:38;4.40;;;2.55;;
76626;SDS011;65519;53.230;10.390;2023-02-03T00:13:04;5.72;;;2.17;;
76626;SDS011;65519;53.230;10.390;2023-02-03T00:15:30;4.70;;;2.53;;
76626;SDS011;65519;53.230;10.390;2023-02-03T00:17:55;3.78;;;2.53;;
76626;SDS011;65519;53.230;10.390;2023-02-03T00:20:21;4.50;;;3.03;;
76626;SDS011;65519;53.230;10.390;2023-02-03T00:22:46;4.75;;;3.22;;
76626;SDS011;65519;53.230;10.390;2023-02-03T00:25:12;7.15;;;3.13;;
76626;SDS011;65519;53.230;10.390;2023-02-03T00:27:37;5.55;;;3.05;;
76626;SDS011;65519;53.230;10.390;2023-02-03T00:30:03;4.00;;;2.30;;
76626;SDS011;65519;53.230;10.390;2023-02-03T00:32:29;10.55;;;3.22;;
76626;SDS011;65519;53.230;10.390;2023-02-03T00:34:54;7.22;;;3.40;;
76626;SDS011;65519;53.230;10.390;2023-02-03T00:37:20;7.20;;;3.97;;
76626;SDS011;65519;53.230;10.390;2023-02-03T00:39:47;8.55;;;4.22;;
76626;SDS011;65519;53.230;10.390;2023-02-03T00:42:13;10.23;;;4.90;;
76626;SDS011;65519;53.230;10.390;2023-02-03T00:44:38;8.95;;;4.88;;
76626;SDS011;65519;53.230;10.390;2023-02-03T00:47:03;11.15;;;5.43;;
76626;SDS011;65519;53.230;10.390;2023-02-03T00:49:29;18.55;;;6.90;;
76626;SDS011;65519;53.230;10.390;2023-02-03T00:51:54;17.55;;;7.10;;
76626;SDS011;65519;53.230;10.390;2023-02-03T00:54:20;23.33;;;8.60;;
76626;SDS011;65519;53.230;10.390;2023-02-03T00:56:45;19.75;;;6.72;;
76626;SDS011;65519;53.230;10.390;2023-02-03T00:59:10;18.00;;;6.78;;
76626;SDS011;65519;53.230;10.390;2023-02-03T01:01:36;18.40;;;7.68;;
76626;SDS011;65519;53.230;10.390;2023-02-03T01:04:01;16.80;;;6.78;;
76626;SDS011;65519;53.230;10.390;2023-02-03T01:06:27;18.48;;;7.38;;
76626;SDS011;65519;53.230;10.390;2023-02-03T01:08:53;23.63;;;9.23;;
76626;SDS011;65519;53.230;10.390;2023-02-03T01:11:28;21.23;;;8.98;;
76626;SDS011;65519;53.230;10.390;2023-02-03T01:13:54;24.85;;;10.32;;
76626;SDS011;65519;53.230;10.390;2023-02-03T01:16:21;25.75;;;9.70;;
76626;SDS011;65519;53.230;10.390;2023-02-03T01:18:48;20.10;;;8.20;;
76626;SDS011;65519;53.230;10.390;2023-02-03T01:21:24;19.95;;;9.07;;
76626;SDS011;65519;53.230;10.390;2023-02-03T01:23:50;23.17;;;9.68;;
76626;SDS011;65519;53.230;10.390;2023-02-03T01:26:17;24.50;;;10.38;;
76626;SDS011;65519;53.230;10.390;2023-02-03T01:28:54;25.52;;;11.05;;
76626;SDS011;65519;53.230;10.390;2023-02-03T01:31:28;23.80;;;11.05;;
76626;SDS011;65519;53.230;10.390;2023-02-03T01:34:04;29.15;;;13.20;;
76626;SDS011;65519;53.230;10.390;2023-02-03T01:36:31;34.97;;;15.57;;
76626;SDS011;65519;53.230;10.390;2023-02-03T01:38:58;32.33;;;14.85;;
76626;SDS011;65519;53.230;10.390;2023-02-03T01:41:34;25.70;;;11.43;;
76626;SDS011;65519;53.230;10.390;2023-02-03T01:44:30;30.48;;;12.20;;
76626;SDS011;65519;53.230;10.390;2023-02-03T01:47:01;29.45;;;14.00;;
76626;SDS011;65519;53.230;10.390;2023-02-03T01:49:31;28.00;;;12.75;;
76626;SDS011;65519;53.230;10.390;2023-02-03T01:52:00;27.20;;;13.90;;
76626;SDS011;65519;53.230;10.390;2023-02-03T01:54:28;27.27;;;10.95;;
76626;SDS011;65519;53.230;10.390;2023-02-03T01:56:58;27.02;;;12.68;;
76626;SDS011;65519;53.230;10.390;2023-02-03T01:59:27;21.67;;;9.95;;
76626;SDS011;65519;53.230;10.390;2023-02-03T02:01:55;25.17;;;13.10;;
76626;SDS011;65519;53.230;10.390;2023-02-03T02:04:22;33.25;;;13.20;;
76626;SDS011;65519;53.230;10.390;2023-02-03T02:06:52;27.73;;;13.85;;
76626;SDS011;65519;53.230;10.390;2023-02-03T02:09:23;24.17;;;13.40;;
76626;SDS011;65519;53.230;10.390;2023-02-03T02:11:50;22.83;;;10.40;;
76626;SDS011;65519;53.230;10.390;2023-02-03T02:14:16;21.02;;;10.32;;
76626;SDS011;65519;53.230;10.390;2023-02-03T02:16:50;17.65;;;10.07;;
76626;SDS011;65519;53.230;10.390;2023-02-03T02:28:40;24.50;;;11.32;;
76626;SDS011;65519;53.230;10.390;2023-02-03T02:39:19;24.50;;;11.48;;
76626;SDS011;65519;53.230;10.390;2023-02-03T02:41:58;27.80;;;14.05;;
76626;SDS011;65519;53.230;10.390;2023-02-03T02:47:21;26.88;;;13.98;;
76626;SDS011;65519;53.230;10.390;2023-02-03T02:52:30;26.73;;;15.77;;
76626;SDS011;65519;53.230;10.390;2023-02-03T02:55:00;31.42;;;15.65;;
76626;SDS011;65519;53.230;10.390;2023-02-03T02:57:32;18.48;;;10.90;;
76626;SDS011;65519;53.230;10.390;2023-02-03T03:00:00;25.25;;;13.63;;
76626;SDS011;65519;53.230;10.390;2023-02-03T03:02:32;20.10;;;11.05;;
76626;SDS011;65519;53.230;10.390;2023-02-03T03:04:59;22.98;;;11.55;;
76626;SDS011;65519;53.230;10.390;2023-02-03T03:07:26;21.88;;;11.00;;
76626;SDS011;65519;53.230;10.390;2023-02-03T03:09:59;23.60;;;12.32;;
76626;SDS011;65519;53.230;10.390;2023-02-03T03:12:30;24.77;;;11.52;;
76626;SDS011;65519;53.230;10.390;2023-02-03T03:15:00;21.90;;;11.68;;
76626;SDS011;65519;53.230;10.390;2023-02-03T03:17:39;24.05;;;12.50;;
76626;SDS011;65519;53.230;10.390;2023-02-03T03:20:08;22.65;;;12.02;;
76626;SDS011;65519;53.230;10.390;2023-02-03T03:22:41;23.08;;;11.68;;
76626;SDS011;65519;53.230;10.390;2023-02-03T03:25:13;21.05;;;9.15;;
76626;SDS011;65519;53.230;10.390;2023-02-03T03:27:43;23.90;;;10.40;;
76626;SDS011;65519;53.230;10.390;2023-02-03T03:30:19;15.90;;;8.70;;
76626;SDS011;65519;53.230;10.390;2023-02-03T03:32:58;21.50;;;11.00;;
76626;SDS011;65519;53.230;10.390;2023-02-03T03:35:24;22.17;;;9.82;;
76626;SDS011;65519;53.230;10.390;2023-02-03T03:37:59;20.65;;;9.52;;
76626;SDS011;65519;53.230;10.390;2023-02-03T03:40:33;17.83;;;9.70;;
76626;SDS011;65519;53.230;10.390;2023-02-03T03:43:12;20.88;;;9.48;;
76626;SDS011;65519;53.230;10.390;2023-02-03T03:45:46;20.88;;;10.27;;
76626;SDS011;65519;53.230;10.390;2023-02-03T03:49:14;18.77;;;9.05;;
76626;SDS011;65519;53.230;10.390;2023-02-03T03:53:53;17.53;;;9.70;;
76626;SDS011;65519;53.230;10.390;2023-02-03T03:56:27;18.90;;;10.40;;
76626;SDS011;65519;53.230;10.390;2023-02-03T03:58:56;19.27;;;8.82;;
76626;SDS011;65519;53.230;10.390;2023-02-03T04:01:25;14.93;;;8.60;;
76626;SDS011;65519;53.230;10.390;2023-02-03T04:03:53;15.52;;;8.75;;
76626;SDS011;65519;53.230;10.390;2023-02-03T04:06:22;14.48;;;8.02;;
76626;SDS011;65519;53.230;10.390;2023-02-03T04:08:48;12.77;;;6.45;;
76626;SDS011;65519;53.230;10.390;2023-02-03T04:11:13;22.35;;;11.10;;
76626;SDS011;65519;53.230;10.390;2023-02-03T04:13:58;16.45;;;9.05;;
76626;SDS011;65519;53.230;10.390;2023-02-03T04:16:24;21.77;;;9.97;;
76626;SDS011;65519;53.230;10.390;2023-02-03T04:18:49;15.93;;;8.70;;
76626;SDS011;65519;53.230;10.390;2023-02-03T04:21:14;16.40;;;9.13;;
76626;SDS011;65519;53.230;10.390;2023-02-03T04:23:40;11.77;;;6.60;;
76626;SDS011;65519;53.230;10.390;2023-02-03T04:26:05;12.10;;;7.28;;
76626;SDS011;65519;53.230;10.390;2023-02-03T04:28:30;17.67;;;10.05;;
76626;SDS011;65519;53.230;10.390;2023-02-03T04:30:58;15.67;;;9.37;;
76626;SDS011;65519;53.230;10.390;2023-02-03T04:33:24;16.17;;;8.18;;
76626;SDS011;65519;53.230;10.390;2023-02-03T04:35:50;15.77;;;9.77;;
76626;SDS011;65519;53.230;10.390;2023-02-03T04:38:15;17.40;;;9.03;;
76626;SDS011;65519;53.230;10.390;2023-02-03T04:40:40;15.00;;;9.33;;
76626;SDS011;65519;53.230;10.390;2023-02-03T04:43:06;18.60;;;10.15;;
76626;SDS011;65519;53.230;10.390;2023-02-03T04:45:32;16.45;;;10.30;;
76626;SDS011;65519;53.230;10.390;2023-02-03T04:47:58;19.10;;;8.95;;
76626;SDS011;65519;53.230;10.390;2023-02-03T04:50:23;13.68;;;8.57;;
76626;SDS011;65519;53.230;10.390;2023-02-03T04:52:48;20.45;;;10.40;;
76626;SDS011;65519;53.230;10.390;2023-02-03T04:55:14;12.32;;;7.78;;
76626;SDS011;65519;53.230;10.390;2023-02-03T04:57:39;15.50;;;8.90;;
76626;SDS011;65519;53.230;10.390;2023-02-03T05:00:05;18.25;;;9.40;;
76626;SDS011;65519;53.230;10.390;2023-02-03T05:02:31;15.52;;;9.02;;
76626;SDS011;65519;53.230;10.390;2023-02-03T05:04:56;13.23;;;7.87;;
76626;SDS011;65519;53.230;10.390;2023-02-03T05:07:21;13.13;;;8.00;;
76626;SDS011;65519;53.230;10.390;2023-02-03T05:09:47;12.00;;;6.43;;
76626;SDS011;65519;53.230;10.390;2023-02-03T05:12:12;15.63;;;7.45;;
76626;SDS011;65519;53.230;10.390;2023-02-03T05:14:37;19.50;;;10.60;;
76626;SDS011;65519;53.230;10.390;2023-02-03T05:17:03;13.98;;;8.02;;
76626;SDS011;65519;53.230;10.390;2023-02-03T05:19:28;18.55;;;8.55;;
76626;SDS011;65519;53.230;10.390;2023-02-03T05:21:53;13.30;;;7.32;;
76626;SDS011;65519;53.230;10.390;2023-02-03T05:24:19;14.97;;;6.97;;
76626;SDS011;65519;53.230;10.390;2023-02-03T05:26:44;17.73;;;8.57;;
76626;SDS011;65519;53.230;10.390;2023-02-03T05:29:09;15.00;;;9.63;;
76626;SDS011;65519;53.230;10.390;2023-02-03T05:31:36;19.70;;;8.57;;
76626;SDS011;65519;53.230;10.390;2023-02-03T05:34:01;16.98;;;8.70;;
76626;SDS011;65519;53.230;10.390;2023-02-03T05:36:26;10.43;;;5.60;;
76626;SDS011;65519;53.230;10.390;2023-02-03T05:38:52;15.67;;;8.17;;
76626;SDS011;65519;53.230;10.390;2023-02-03T05:41:17;13.73;;;7.88;;
76626;SDS011;65519;53.230;10.390;2023-02-03T05:44:01;15.65;;;8.77;;
76626;SDS011;65519;53.230;10.390;2023-02-03T05:46:27;15.20;;;8.65;;
76626;SDS011;65519;53.230;10.390;2023-02-03T05:48:52;17.92;;;8.07;;
76626;SDS011;65519;53.230;10.390;2023-02-03T05:51:17;11.83;;;6.67;;
76626;SDS011;65519;53.230;10.390;2023-02-03T05:53:43;13.38;;;8.75;;
76626;SDS011;65519;53.230;10.390;2023-02-03T05:56:08;11.20;;;6.95;;
76626;SDS011;65519;53.230;10.390;2023-02-03T05:58:34;14.98;;;8.60;;
76626;SDS011;65519;53.230;10.390;2023-02-03T06:00:59;11.93;;;5.72;;
76626;SDS011;65519;53.230;10.390;2023-02-03T06:03:24;17.98;;;7.85;;
76626;SDS011;65519;53.230;10.390;2023-02-03T06:05:50;13.50;;;8.35;;
76626;SDS011;65519;53.230;10.390;2023-02-03T06:08:15;12.85;;;8.02;;
76626;SDS011;65519;53.230;10.390;2023-02-03T06:10:40;8.63;;;4.32;;
76626;SDS011;65519;53.230;10.390;2023-02-03T06:13:07;14.15;;;6.68;;
76626;SDS011;65519;53.230;10.390;2023-02-03T06:15:33;15.02;;;7.60;;
76626;SDS011;65519;53.230;10.390;2023-02-03T06:17:59;19.25;;;10.55;;
76626;SDS011;65519;53.230;10.390;2023-02-03T06:20:24;13.60;;;7.43;;
76626;SDS011;65519;53.230;10.390;2023-02-03T06:22:50;9.27;;;5.45;;
76626;SDS011;65519;53.230;10.390;2023-02-03T06:25:15;11.03;;;6.67;;
76626;SDS011;65519;53.230;10.390;2023-02-03T06:27:40;9.80;;;5.90;;
76626;SDS011;65519;53.230;10.390;2023-02-03T06:30:06;20.42;;;8.10;;
76626;SDS011;65519;53.230;10.390;2023-02-03T06:32:32;16.00;;;6.22;;
76626;SDS011;65519;53.230;10.390;2023-02-03T06:34:58;11.68;;;6.22;;
76626;SDS011;65519;53.230;10.390;2023-02-03T06:37:23;12.57;;;5.50;;
76626;SDS011;65519;53.230;10.390;2023-02-03T06:39:48;18.33;;;7.57;;
76626;SDS011;65519;53.230;10.390;2023-02-03T06:42:14;11.30;;;5.63;;
76626;SDS011;65519;53.230;10.390;2023-02-03T06:44:39;13.90;;;7.32;;
76626;SDS011;65519;53.230;10.390;2023-02-03T06:47:05;11.48;;;5.85;;
76626;SDS011;65519;53.230;10.390;2023-02-03T06:49:30;11.38;;;7.43;;
76626;SDS011;65519;53.230;10.390;2023-02-03T06:51:55;17.52;;;6.70;;
76626;SDS011;65519;53.230;10.390;2023-02-03T06:54:21;13.73;;;8.10;;
76626;SDS011;65519;53.230;10.390;2023-02-03T06:56:46;18.05;;;9.00;;
76626;SDS011;65519;53.230;10.390;2023-02-03T06:59:12;14.60;;;7.47;;
76626;SDS011;65519;53.230;10.390;2023-02-03T07:01:37;12.85;;;6.78;;
76626;SDS011;65519;53.230;10.390;2023-02-03T07:04:03;16.98;;;8.63;;
76626;SDS011;65519;53.230;10.390;2023-02-03T07:06:29;7.85;;;4.90;;
76626;SDS011;65519;53.230;10.390;2023-02-03T07:08:57;13.13;;;7.40;;
76626;SDS011;65519;53.230;10.390;2023-02-03T07:11:23;17.27;;;7.60;;
76626;SDS011;65519;53.230;10.390;2023-02-03T07:13:49;14.25;;;6.47;;
76626;SDS011;65519;53.230;10.390;2023-02-03T07:16:15;10.75;;;5.80;;
76626;SDS011;65519;53.230;10.390;2023-02-03T07:18:40;12.95;;;6.75;;
76626;SDS011;65519;53.230;10.390;2023-02-03T07:21:06;10.88;;;6.45;;
76626;SDS011;65519;53.230;10.390;2023-02-03T07:23:32;10.30;;;5.90;;
76626;SDS011;65519;53.230;10.390;2023-02-03T07:26:01;47.65;;;21.92;;
76626;SDS011;65519;53.230;10.390;2023-02-03T07:28:28;19.02;;;10.45;;
76626;SDS011;65519;53.230;10.390;2023-02-03T07:30:55;8.38;;;5.03;;
76626;SDS011;65519;53.230;10.390;2023-02-03T07:33:20;13.25;;;7.22;;
76626;SDS011;65519;53.230;10.390;2023-02-03T07:35:55;11.07;;;4.88;;
76626;SDS011;65519;53.230;10.390;2023-02-03T07:38:22;9.07;;;5.80;;
76626;SDS011;65519;53.230;10.390;2023-02-03T07:40:55;15.30;;;5.18;;
76626;SDS011;65519;53.230;10.390;2023-02-03T07:43:21;14.63;;;6.05;;
76626;SDS011;65519;53.230;10.390;2023-02-03T07:45:47;15.48;;;6.00;;
76626;SDS011;65519;53.230;10.390;2023-02-03T07:48:12;13.25;;;6.60;;
76626;SDS011;65519;53.230;10.390;2023-02-03T07:50:38;14.02;;;5.78;;
76626;SDS011;65519;53.230;10.390;2023-02-03T07:53:05;14.45;;;6.32;;
76626;SDS011;65519;53.230;10.390;2023-02-03T07:55:33;11.00;;;5.57;;
76626;SDS011;65519;53.230;10.390;2023-02-03T07:57:58;10.55;;;5.32;;
76626;SDS011;65519;53.230;10.390;2023-02-03T08:00:24;15.13;;;6.65;;
76626;SDS011;65519;53.230;10.390;2023-02-03T08:02:50;9.98;;;5.78;;
76626;SDS011;65519;53.230;10.390;2023-02-03T08:05:16;9.98;;;5.43;;
76626;SDS011;65519;53.230;10.390;2023-02-03T08:07:42;7.93;;;4.53;;
76626;SDS011;65519;53.230;10.390;2023-02-03T08:10:09;9.93;;;4.55;;
76626;SDS011;65519;53.230;10.390;2023-02-03T08:12:35;12.23;;;5.45;;
76626;SDS011;65519;53.230;10.390;2023-02-03T08:15:02;18.65;;;8.98;;
76626;SDS011;65519;53.230;10.390;2023-02-03T08:17:27;8.05;;;4.85;;
76626;SDS011;65519;53.230;10.390;2023-02-03T08:19:53;13.30;;;5.15;;
76626;SDS011;65519;53.230;10.390;2023-02-03T08:22:18;10.50;;;5.55;;
76626;SDS011;65519;53.230;10.390;2023-02-03T08:24:44;11.73;;;4.38;;
76626;SDS011;65519;53.230;10.390;2023-02-03T08:27:17;7.47;;;4.60;;
76626;SDS011;65519;53.230;10.390;2023-02-03T08:29:45;7.50;;;4.95;;
76626;SDS011;65519;53.230;10.390;2023-02-03T08:32:12;22.92;;;8.45;;
76626;SDS011;65519;53.230;10.390;2023-02-03T08:34:42;12.13;;;4.00;;
76626;SDS011;65519;53.230;10.390;2023-02-03T08:37:07;8.70;;;4.22;;
76626;SDS011;65519;53.230;10.390;2023-02-03T08:39:35;8.05;;;3.60;;
76626;SDS011;65519;53.230;10.390;2023-02-03T08:42:00;6.57;;;3.57;;
76626;SDS011;65519;53.230;10.390;2023-02-03T08:44:28;12.63;;;4.22;;
76626;SDS011;65519;53.230;10.390;2023-02-03T08:46:54;12.85;;;4.60;;
76626;SDS011;65519;53.230;10.390;2023-02-03T08:49:20;12.07;;;3.78;;
76626;SDS011;65519;53.230;10.390;2023-02-03T08:51:46;26.27;;;12.75;;
76626;SDS011;65519;53.230;10.390;2023-02-03T08:54:12;17.00;;;9.75;;
76626;SDS011;65519;53.230;10.390;2023-02-03T08:56:38;28.80;;;11.82;;
76626;SDS011;65519;53.230;10.390;2023-02-03T08:59:04;15.70;;;3.90;;
76626;SDS011;65519;53.230;10.390;2023-02-03T09:01:30;18.13;;;9.20;;
76626;SDS011;65519;53.230;10.390;2023-02-03T09:03:55;12.05;;;3.15;;
76626;SDS011;65519;53.230;10.390;2023-02-03T09:06:21;8.65;;;3.17;;
76626;SDS011;65519;53.230;10.390;2023-02-03T09:08:47;10.60;;;2.67;;
76626;SDS011;65519;53.230;10.390;2023-02-03T09:11:13;18.35;;;3.80;;
76626;SDS011;65519;53.230;10.390;2023-02-03T09:13:41;10.00;;;3.30;;
76626;SDS011;65519;53.230;10.390;2023-02-03T09:16:10;18.40;;;4.85;;
76626;SDS011;65519;53.230;10.390;2023-02-03T09:18:43;14.45;;;4.25;;
76626;SDS011;65519;53.230;10.390;2023-02-03T09:21:09;11.20;;;3.10;;
76626;SDS011;65519;53.230;10.390;2023-02-03T09:23:35;19.65;;;4.05;;
76626;SDS011;65519;53.230;10.390;2023-02-03T09:26:01;17.90;;;3.53;;
76626;SDS011;65519;53.230;10.390;2023-02-03T09:28:34;14.88;;;3.42;;
76626;SDS011;65519;53.230;10.390;2023-02-03T09:31:00;11.23;;;2.90;;
76626;SDS011;65519;53.230;10.390;2023-02-03T09:33:27;19.30;;;3.15;;
76626;SDS011;65519;53.230;10.390;2023-02-03T09:35:53;15.07;;;2.85;;
76626;SDS011;65519;53.230;10.390;2023-02-03T09:38:19;12.90;;;2.80;;
76626;SDS011;65519;53.230;10.390;2023-02-03T09:40:46;18.38;;;4.35;;
76626;SDS011;65519;53.230;10.390;2023-02-03T09:43:27;17.73;;;3.50;;
76626;SDS011;65519;53.230;10.390;2023-02-03T09:46:01;24.48;;;4.82;;
76626;SDS011;65519;53.230;10.390;2023-02-03T09:48:33;22.13;;;3.90;;
76626;SDS011;65519;53.230;10.390;2023-02-03T09:51:03;19.60;;;3.25;;
76626;SDS011;65519;53.230;10.390;2023-02-03T09:53:41;27.35;;;5.10;;
76626;SDS011;65519;53.230;10.390;2023-02-03T09:56:18;18.38;;;4.18;;
76626;SDS011;65519;53.230;10.390;2023-02-03T09:58:51;26.45;;;4.90;;
76626;SDS011;65519;53.230;10.390;2023-02-03T10:01:16;32.55;;;6.15;;
76626;SDS011;65519;53.230;10.390;2023-02-03T10:12:06;29.55;;;4.70;;
76626;SDS011;65519;53.230;10.390;2023-02-03T10:22:38;35.67;;;5.32;;
76626;SDS011;65519;53.230;10.390;2023-02-03T10:27:38;41.38;;;6.20;;
76626;SDS011;65519;53.230;10.390;2023-02-03T10:35:37;32.58;;;6.68;;
76626;SDS011;65519;53.230;10.390;2023-02-03T10:41:06;36.70;;;6.55;;
76626;SDS011;65519;53.230;10.390;2023-02-03T10:43:32;29.80;;;6.28;;
76626;SDS011;65519;53.230;10.390;2023-02-03T10:46:17;31.88;;;6.30;;
76626;SDS011;65519;53.230;10.390;2023-02-03T10:49:00;29.67;;;5.85;;
76626;SDS011;65519;53.230;10.390;2023-02-03T10:51:31;31.42;;;6.60;;
76626;SDS011;65519;53.230;10.390;2023-02-03T10:54:00;29.73;;;6.63;;
76626;SDS011;65519;53.230;10.390;2023-02-03T10:56:28;30.23;;;6.25;;
76626;SDS011;65519;53.230;10.390;2023-02-03T10:58:56;38.10;;;6.25;;
76626;SDS011;65519;53.230;10.390;2023-02-03T11:01:43;33.75;;;5.68;;
76626;SDS011;65519;53.230;10.390;2023-02-03T11:07:06;27.20;;;6.15;;
76626;SDS011;65519;53.230;10.390;2023-02-03T11:09:48;38.83;;;7.32;;
76626;SDS011;65519;53.230;10.390;2023-02-03T11:19:52;38.05;;;6.32;;
76626;SDS011;65519;53.230;10.390;2023-02-03T11:24:53;32.83;;;6.15;;
76626;SDS011;65519;53.230;10.390;2023-02-03T11:27:19;26.95;;;5.25;;
76626;SDS011;65519;53.230;10.390;2023-02-03T11:29:47;31.98;;;5.35;;
76626;SDS011;65519;53.230;10.390;2023-02-03T11:35:00;31.42;;;6.82;;
76626;SDS011;65519;53.230;10.390;2023-02-03T11:37:38;37.92;;;7.68;;
76626;SDS011;65519;53.230;10.390;2023-02-03T11:42:31;46.47;;;9.03;;
76626;SDS011;65519;53.230;10.390;2023-02-03T11:45:40;44.00;;;12.93;;
76626;SDS011;65519;53.230;10.390;2023-02-03T11:47:53;41.65;;;9.45;;
76626;SDS011;65519;53.230;10.390;2023-02-03T11:50:28;32.72;;;6.65;;
76626;SDS011;65519;53.230;10.390;2023-02-03T11:53:06;27.70;;;5.57;;
76626;SDS011;65519;53.230;10.390;2023-02-03T11:58:39;29.33;;;6.38;;
76626;SDS011;65519;53.230;10.390;2023-02-03T12:09:40;23.17;;;4.18;;
76626;SDS011;65519;53.230;10.390;2023-02-03T12:12:24;35.88;;;6.15;;
76626;SDS011;65519;53.230;10.390;2023-02-03T12:30:15;35.95;;;8.70;;
76626;SDS011;65519;53.230;10.390;2023-02-03T12:32:50;33.13;;;6.57;;
76626;SDS011;65519;53.230;10.390;2023-02-03T12:35:20;32.28;;;4.72;;
76626;SDS011;65519;53.230;10.390;2023-02-03T12:40:35;24.58;;;5.80;;
76626;SDS011;65519;53.230;10.390;2023-02-03T12:43:29;31.50;;;5.78;;
76626;SDS011;65519;53.230;10.390;2023-02-03T12:48:52;31.60;;;6.30;;
76626;SDS011;65519;53.230;10.390;2023-02-03T12:57:20;21.42;;;4.50;;
76626;SDS011;65519;53.230;10.390;2023-02-03T13:02:47;30.58;;;5.78;;
76626;SDS011;65519;53.230;10.390;2023-02-03T13:14:32;30.98;;;5.63;;
76626;SDS011;65519;53.230;10.390;2023-02-03T13:19:52;34.53;;;5.70;;
76626;SDS011;65519;53.230;10.390;2023-02-03T13:22:21;38.53;;;5.45;;
76626;SDS011;65519;53.230;10.390;2023-02-03T13:24:49;32.45;;;5.70;;
76626;SDS011;65519;53.230;10.390;2023-02-03T13:32:52;30.23;;;4.80;;
76626;SDS011;65519;53.230;10.390;2023-02-03T13:43:52;32.63;;;8.90;;
76626;SDS011;65519;53.230;10.390;2023-02-03T13:46:25;37.47;;;11.32;;
76626;SDS011;65519;53.230;10.390;2023-02-03T13:48:54;54.53;;;19.40;;
76626;SDS011;65519;53.230;10.390;2023-02-03T13:51:24;28.05;;;5.15;;
76626;SDS011;65519;53.230;10.390;2023-02-03T13:53:58;32.58;;;5.40;;
76626;SDS011;65519;53.230;10.390;2023-02-03T13:56:27;20.35;;;3.70;;
76626;SDS011;65519;53.230;10.390;2023-02-03T13:59:03;20.77;;;3.63;;
76626;SDS011;65519;53.230;10.390;2023-02-03T14:01:44;25.83;;;5.35;;
76626;SDS011;65519;53.230;10.390;2023-02-03T14:12:15;25.30;;;5.68;;
76626;SDS011;65519;53.230;10.390;2023-02-03T14:14:55;35.75;;;5.35;;
76626;SDS011;65519;53.230;10.390;2023-02-03T14:18:29;32.88;;;5.80;;
76626;SDS011;65519;53.230;10.390;2023-02-03T14:25:21;28.15;;;5.38;;
76626;SDS011;65519;53.230;10.390;2023-02-03T14:27:57;28.70;;;5.10;;
76626;SDS011;65519;53.230;10.390;2023-02-03T14:30:24;32.00;;;5.40;;
76626;SDS011;65519;53.230;10.390;2023-02-03T14:35:38;25.98;;;5.57;;
76626;SDS011;65519;53.230;10.390;2023-02-03T14:43:40;32.25;;;5.68;;
76626;SDS011;65519;53.230;10.390;2023-02-03T14:46:33;36.40;;;6.68;;
76626;SDS011;65519;53.230;10.390;2023-02-03T14:49:17;31.17;;;5.72;;
76626;SDS011;65519;53.230;10.390;2023-02-03T14:59:57;33.05;;;7.13;;
76626;SDS011;65519;53.230;10.390;2023-02-03T15:02:24;29.73;;;5.65;;
76626;SDS011;65519;53.230;10.390;2023-02-03T15:10:51;29.85;;;5.22;;
76626;SDS011;65519;53.230;10.390;2023-02-03T15:13:03;26.63;;;4.00;;
76626;SDS011;65519;53.230;10.390;2023-02-03T15:15:29;32.97;;;5.43;;
76626;SDS011;65519;53.230;10.390;2023-02-03T15:17:59;27.92;;;4.95;;
76626;SDS011;65519;53.230;10.390;2023-02-03T15:20:44;31.50;;;6.68;;
76626;SDS011;65519;53.230;10.390;2023-02-03T15:23:17;28.55;;;6.10;;
76626;SDS011;65519;53.230;10.390;2023-02-03T15:28:22;26.85;;;6.30;;
76626;SDS011;65519;53.230;10.390;2023-02-03T15:30:50;36.67;;;7.25;;
76626;SDS011;65519;53.230;10.390;2023-02-03T15:33:31;26.13;;;5.65;;
76626;SDS011;65519;53.230;10.390;2023-02-03T15:36:12;29.73;;;5.78;;
76626;SDS011;65519;53.230;10.390;2023-02-03T15:38:54;22.73;;;4.32;;
76626;SDS011;65519;53.230;10.390;2023-02-03T15:41:47;20.52;;;4.90;;
76626;SDS011;65519;53.230;10.390;2023-02-03T15:45:18;35.20;;;7.13;;
76626;SDS011;65519;53.230;10.390;2023-02-03T15:49:56;24.70;;;5.15;;
76626;SDS011;65519;53.230;10.390;2023-02-03T15:52:28;27.42;;;5.30;;
76626;SDS011;65519;53.230;10.390;2023-02-03T15:55:11;39.00;;;7.07;;
76626;SDS011;65519;53.230;10.390;2023-02-03T15:57:44;32.53;;;6.43;;
76626;SDS011;65519;53.230;10.390;2023-02-03T16:00:30;33.90;;;6.97;;
76626;SDS011;65519;53.230;10.390;2023-02-03T16:02:59;32.55;;;6.72;;
76626;SDS011;65519;53.230;10.390;2023-02-03T16:05:28;29.08;;;5.95;;
76626;SDS011;65519;53.230;10.390;2023-02-03T16:07:56;33.83;;;7.07;;
76626;SDS011;65519;53.230;10.390;2023-02-03T16:10:52;29.20;;;5.57;;
76626;SDS011;65519;53.230;10.390;2023-02-03T16:13:18;26.67;;;4.85;;
76626;SDS011;65519;53.230;10.390;2023-02-03T16:16:00;35.63;;;6.55;;
76626;SDS011;65519;53.230;10.390;2023-02-03T16:18:31;30.40;;;6.20;;
76626;SDS011;65519;53.230;10.390;2023-02-03T16:20:59;29.45;;;6.20;;
76626;SDS011;65519;53.230;10.390;2023-02-03T16:23:25;30.65;;;6.72;;
76626;SDS011;65519;53.230;10.390;2023-02-03T16:26:00;29.27;;;5.72;;
76626;SDS011;65519;53.230;10.390;2023-02-03T16:28:41;33.95;;;5.80;;
76626;SDS011;65519;53.230;10.390;2023-02-03T16:31:25;38.22;;;6.85;;
76626;SDS011;65519;53.230;10.390;2023-02-03T16:34:11;27.05;;;6.30;;
76626;SDS011;65519;53.230;10.390;2023-02-03T16:37:00;22.50;;;4.97;;
76626;SDS011;65519;53.230;10.390;2023-02-03T16:39:44;29.17;;;7.15;;
76626;SDS011;65519;53.230;10.390;2023-02-03T16:42:46;25.27;;;5.55;;
76626;SDS011;65519;53.230;10.390;2023-02-03T16:45:30;25.58;;;5.07;;
76626;SDS011;65519;53.230;10.390;2023-02-03T16:48:14;24.67;;;5.03;;
76626;SDS011;65519;53.230;10.390;2023-02-03T16:51:01;27.30;;;6.63;;
76626;SDS011;65519;53.230;10.390;2023-02-03T16:53:30;29.25;;;5.00;;
76626;SDS011;65519;53.230;10.390;2023-02-03T16:55:58;31.65;;;6.60;;
76626;SDS011;65519;53.230;10.390;2023-02-03T16:58:25;30.42;;;8.07;;
76626;SDS011;65519;53.230;10.390;2023-02-03T17:00:51;22.00;;;5.22;;
76626;SDS011;65519;53.230;10.390;2023-02-03T17:03:21;28.60;;;5.05;;
76626;SDS011;65519;53.230;10.390;2023-02-03T17:05:48;24.02;;;4.82;;
76626;SDS011;65519;53.230;10.390;2023-02-03T17:08:15;23.85;;;4.75;;
76626;SDS011;65519;53.230;10.390;2023-02-03T17:10:44;30.42;;;5.63;;
76626;SDS011;65519;53.230;10.390;2023-02-03T17:13:11;44.10;;;13.15;;
76626;SDS011;65519;53.230;10.390;2023-02-03T17:15:44;27.58;;;7.03;;
76626;SDS011;65519;53.230;10.390;2023-02-03T17:18:12;32.95;;;5.70;;
76626;SDS011;65519;53.230;10.390;2023-02-03T17:20:41;27.27;;;5.15;;
76626;SDS011;65519;53.230;10.390;2023-02-03T17:23:08;31.80;;;5.90;;
76626;SDS011;65519;53.230;10.390;2023-02-03T17:25:35;32.05;;;6.32;;
76626;SDS011;65519;53.230;10.390;2023-02-03T17:28:04;29.83;;;5.72;;
76626;SDS011;65519;53.230;10.390;2023-02-03T17:30:31;39.85;;;9.30;;
76626;SDS011;65519;53.230;10.390;2023-02-03T17:33:00;45.67;;;12.00;;
76626;SDS011;65519;53.230;10.390;2023-02-03T17:35:26;38.53;;;9.80;;